createdAt,value
2023-05-18T00:01:24.649Z,0.40
2023-05-18T00:03:54.368Z,0.40
2023-05-18T00:06:22.728Z,0.40
2023-05-18T00:08:50.057Z,0.50
2023-05-18T00:11:17.909Z,0.50
2023-05-18T00:13:45.862Z,0.40
2023-05-18T00:16:15.969Z,0.50
2023-05-18T00:18:45.239Z,0.50
2023-05-18T00:21:13.400Z,0.50
2023-05-18T00:23:42.320Z,0.40
2023-05-18T00:26:09.561Z,0.53
2023-05-18T00:28:36.881Z,0.47
2023-05-18T00:31:04.484Z,0.47
2023-05-18T00:33:31.742Z,0.50
2023-05-18T00:35:59.443Z,0.50
2023-05-18T00:38:26.693Z,0.50
2023-05-18T00:40:54.089Z,0.50
2023-05-18T00:43:21.359Z,0.50
2023-05-18T00:45:48.691Z,0.50
2023-05-18T00:48:16.039Z,0.60
2023-05-18T00:50:43.449Z,0.50
2023-05-18T00:53:10.906Z,0.40
2023-05-18T00:55:38.490Z,0.50
2023-05-18T00:58:05.866Z,0.60
2023-05-18T01:00:34.011Z,0.40
2023-05-18T01:03:02.342Z,0.50
2023-05-18T01:05:30.178Z,0.50
2023-05-18T01:07:58.103Z,0.50
2023-05-18T01:10:25.589Z,0.50
2023-05-18T01:13:09.979Z,0.60
2023-05-18T01:15:39.814Z,0.67
2023-05-18T01:18:21.922Z,0.53
2023-05-18T01:21:04.817Z,0.50
2023-05-18T01:23:52.420Z,0.60
2023-05-18T01:26:41.605Z,0.60
2023-05-18T01:29:11.502Z,0.50
2023-05-18T01:31:39.969Z,0.50
2023-05-18T01:34:07.383Z,0.60
2023-05-18T01:36:34.737Z,0.60
2023-05-18T01:39:03.778Z,0.60
2023-05-18T01:41:34.982Z,0.70
2023-05-18T01:44:06.520Z,0.50
2023-05-18T01:47:04.322Z,0.60
2023-05-18T01:49:39.325Z,0.50
2023-05-18T01:52:10.716Z,0.57
2023-05-18T01:54:42.088Z,0.60
2023-05-18T01:57:10.128Z,0.50
2023-05-18T01:59:41.950Z,0.70
2023-05-18T02:02:09.286Z,0.60
2023-05-18T02:04:36.633Z,0.50
2023-05-18T02:07:03.989Z,0.50
2023-05-18T02:09:31.423Z,0.60
2023-05-18T02:11:58.934Z,0.93
2023-05-18T02:14:26.249Z,0.70
2023-05-18T02:16:53.582Z,0.50
2023-05-18T02:19:22.189Z,0.63
2023-05-18T02:21:49.538Z,0.50
2023-05-18T02:24:18.437Z,0.60
2023-05-18T02:26:45.959Z,0.70
2023-05-18T02:29:14.788Z,0.67
2023-05-18T02:31:42.387Z,0.60
2023-05-18T02:34:10.488Z,0.40
2023-05-18T02:36:40.011Z,0.60
2023-05-18T02:39:07.877Z,0.60
2023-05-18T02:41:36.358Z,1.20
2023-05-18T02:44:04.746Z,0.63
2023-05-18T02:46:32.541Z,0.60
2023-05-18T02:49:00.889Z,0.70
2023-05-18T02:51:28.327Z,0.63
2023-05-18T02:53:55.606Z,0.60
2023-05-18T02:56:23.439Z,0.60
2023-05-18T02:58:50.649Z,0.70
2023-05-18T03:01:18.007Z,0.60
2023-05-18T03:03:45.352Z,0.60
2023-05-18T03:06:14.122Z,0.70
2023-05-18T03:08:42.646Z,0.73
2023-05-18T03:11:09.963Z,0.60
2023-05-18T03:13:37.223Z,0.50
2023-05-18T03:16:05.461Z,0.60
2023-05-18T03:18:32.714Z,0.77
2023-05-18T03:21:02.209Z,0.70
2023-05-18T03:23:30.292Z,0.70
2023-05-18T03:25:57.757Z,0.90
2023-05-18T03:28:25.017Z,0.77
2023-05-18T03:30:52.307Z,1.00
2023-05-18T03:33:19.739Z,0.70
2023-05-18T03:35:48.601Z,0.60
2023-05-18T03:38:16.273Z,0.80
2023-05-18T03:40:43.573Z,0.70
2023-05-18T03:43:11.008Z,1.00
2023-05-18T03:45:38.342Z,0.93
2023-05-18T03:48:06.412Z,1.00
2023-05-18T03:50:33.927Z,0.80
2023-05-18T03:53:01.311Z,1.10
2023-05-18T03:55:30.136Z,0.80
2023-05-18T03:57:59.221Z,1.00
2023-05-18T04:00:26.697Z,1.20
2023-05-18T04:02:54.082Z,0.90
2023-05-18T04:05:21.467Z,0.87
2023-05-18T04:07:50.176Z,1.00
2023-05-18T04:10:19.711Z,1.20
2023-05-18T04:12:47.050Z,1.00
2023-05-18T04:15:17.417Z,0.90
2023-05-18T04:17:46.009Z,1.10
2023-05-18T04:20:14.780Z,1.00
2023-05-18T04:22:43.699Z,1.07
2023-05-18T04:25:11.772Z,1.10
2023-05-18T04:27:40.399Z,1.00
2023-05-18T04:30:10.762Z,1.00
2023-05-18T04:32:39.334Z,1.03
2023-05-18T04:35:07.662Z,1.00
2023-05-18T04:37:35.410Z,1.10
2023-05-18T04:40:07.498Z,0.93
2023-05-18T04:42:35.710Z,1.10
2023-05-18T04:45:05.933Z,1.10
2023-05-18T04:47:33.265Z,1.10
2023-05-18T04:50:00.651Z,1.13
2023-05-18T04:52:30.866Z,1.00
2023-05-18T04:54:58.146Z,1.00
2023-05-18T04:57:25.498Z,0.90
2023-05-18T04:59:53.543Z,1.10
2023-05-18T05:02:21.134Z,1.00
2023-05-18T05:04:49.591Z,1.30
2023-05-18T05:07:16.895Z,0.97
2023-05-18T05:09:44.140Z,1.00
2023-05-18T05:12:11.375Z,1.13
2023-05-18T05:14:38.669Z,1.17
2023-05-18T05:17:05.959Z,0.90
2023-05-18T05:19:33.318Z,1.00
2023-05-18T05:22:00.792Z,1.30
2023-05-18T05:24:28.140Z,1.23
2023-05-18T05:26:55.503Z,0.93
2023-05-18T05:29:26.601Z,1.50
2023-05-18T05:31:56.420Z,1.13
2023-05-18T05:34:23.821Z,1.30
2023-05-18T05:36:54.359Z,1.13
2023-05-18T05:39:21.629Z,1.23
2023-05-18T05:41:51.698Z,1.00
2023-05-18T05:44:21.553Z,1.27
2023-05-18T05:46:49.120Z,1.50
2023-05-18T05:49:16.465Z,1.60
2023-05-18T05:51:43.776Z,1.23
2023-05-18T05:54:13.673Z,1.53
2023-05-18T05:56:46.956Z,1.40
2023-05-18T05:59:14.212Z,1.20
2023-05-18T06:01:41.781Z,1.33
2023-05-18T06:04:12.599Z,1.03
2023-05-18T06:06:40.219Z,1.20
2023-05-18T06:09:07.750Z,1.40
2023-05-18T06:11:35.484Z,1.00
2023-05-18T06:14:02.953Z,1.23
2023-05-18T06:16:30.430Z,1.70
2023-05-18T06:18:58.113Z,1.10
2023-05-18T06:21:25.574Z,1.50
2023-05-18T06:23:52.841Z,1.40
2023-05-18T06:26:20.196Z,1.67
2023-05-18T06:28:47.550Z,1.40
2023-05-18T06:31:15.399Z,1.27
2023-05-18T06:33:42.804Z,1.30
2023-05-18T06:36:10.168Z,0.93
2023-05-18T06:38:56.176Z,1.30
2023-05-18T06:41:41.901Z,1.50
2023-05-18T06:44:27.430Z,1.13
2023-05-18T06:47:13.504Z,1.53
2023-05-18T06:49:42.448Z,1.10
2023-05-18T06:52:10.210Z,1.27
2023-05-18T06:54:40.069Z,1.20
2023-05-18T06:57:07.504Z,1.00
2023-05-18T06:59:35.125Z,1.10
2023-05-18T07:02:02.749Z,1.50
2023-05-18T07:04:30.268Z,1.10
2023-05-18T07:06:57.710Z,1.23
2023-05-18T07:09:27.229Z,0.97
2023-05-18T07:11:54.882Z,1.00
2023-05-18T07:14:22.953Z,1.20
2023-05-18T07:16:50.202Z,0.90
2023-05-18T07:19:17.773Z,1.27
2023-05-18T07:21:45.107Z,0.93
2023-05-18T07:24:12.359Z,1.07
2023-05-18T07:26:39.666Z,1.07
2023-05-18T07:29:06.950Z,0.80
2023-05-18T07:34:09.534Z,0.97
2023-05-18T07:36:36.963Z,0.87
2023-05-18T07:39:04.477Z,0.80
2023-05-18T07:41:32.070Z,1.17
2023-05-18T07:43:59.498Z,1.10
2023-05-18T07:46:26.822Z,1.00
2023-05-18T07:48:54.273Z,1.07
2023-05-18T07:51:21.739Z,0.87
2023-05-18T07:53:48.995Z,1.13
2023-05-18T07:56:16.309Z,1.00
2023-05-18T07:58:44.727Z,0.90
2023-05-18T08:01:11.962Z,0.90
2023-05-18T08:03:39.389Z,0.73
2023-05-18T08:06:11.511Z,0.90
2023-05-18T08:08:39.058Z,0.93
2023-05-18T08:11:06.288Z,0.90
2023-05-18T08:13:34.322Z,0.90
2023-05-18T08:16:11.265Z,0.90
2023-05-18T08:18:39.989Z,1.10
2023-05-18T08:21:10.487Z,1.10
2023-05-18T08:23:38.751Z,1.00
2023-05-18T08:26:06.390Z,0.93
2023-05-18T08:28:33.631Z,1.00
2023-05-18T08:31:01.161Z,0.90
2023-05-18T08:33:28.525Z,0.87
2023-05-18T08:35:56.747Z,0.77
2023-05-18T08:38:23.957Z,0.97
2023-05-18T08:41:02.833Z,0.90
2023-05-18T08:43:33.562Z,0.97
2023-05-18T08:46:26.508Z,0.90
2023-05-18T08:48:55.019Z,0.80
2023-05-18T08:51:22.941Z,0.80
2023-05-18T08:53:54.181Z,1.07
2023-05-18T08:56:25.324Z,0.80
2023-05-18T08:58:57.076Z,0.90
2023-05-18T09:01:29.261Z,1.00
2023-05-18T09:03:58.383Z,0.90
2023-05-18T09:06:26.322Z,0.90
2023-05-18T09:08:54.488Z,0.90
2023-05-18T09:11:27.097Z,1.00
2023-05-18T09:13:55.165Z,0.80
2023-05-18T09:16:22.557Z,0.90
2023-05-18T09:18:50.037Z,1.10
2023-05-18T09:21:17.343Z,0.90
2023-05-18T09:23:44.938Z,0.90
2023-05-18T09:26:13.457Z,0.90
2023-05-18T09:28:42.832Z,0.97
2023-05-18T09:31:21.130Z,0.90
2023-05-18T09:33:48.858Z,0.67
2023-05-18T09:36:16.632Z,0.90
2023-05-18T09:38:48.399Z,0.70
2023-05-18T09:41:17.636Z,0.90
2023-05-18T09:43:47.933Z,0.77
2023-05-18T09:46:15.280Z,0.70
2023-05-18T09:48:45.515Z,0.90
2023-05-18T09:51:16.755Z,0.80
2023-05-18T09:53:56.260Z,0.90
2023-05-18T09:56:27.434Z,1.10
2023-05-18T09:58:55.886Z,1.10
2023-05-18T10:01:25.658Z,1.20
2023-05-18T10:03:56.216Z,0.93
2023-05-18T10:06:27.465Z,0.80
2023-05-18T10:08:58.244Z,0.80
2023-05-18T10:11:27.588Z,0.80
2023-05-18T10:13:58.107Z,0.63
2023-05-18T10:16:25.927Z,1.00
2023-05-18T10:18:55.731Z,0.90
2023-05-18T10:21:27.994Z,0.83
2023-05-18T10:23:55.668Z,0.73
2023-05-18T10:26:26.413Z,0.80
2023-05-18T10:28:55.826Z,0.70
2023-05-18T10:31:24.686Z,0.90
2023-05-18T10:33:53.340Z,0.80
2023-05-18T10:36:22.227Z,0.90
2023-05-18T10:38:50.106Z,0.80
2023-05-18T10:41:21.720Z,0.70
2023-05-18T10:43:49.680Z,0.80
2023-05-18T10:46:17.346Z,0.80
2023-05-18T10:48:50.177Z,0.90
2023-05-18T10:51:19.339Z,0.80
2023-05-18T10:53:47.887Z,1.00
2023-05-18T10:56:18.788Z,1.00
2023-05-18T10:58:46.953Z,1.00
2023-05-18T11:01:16.333Z,0.77
2023-05-18T11:03:43.712Z,0.80
2023-05-18T11:06:12.969Z,0.83
2023-05-18T11:08:50.949Z,0.80
2023-05-18T11:11:23.477Z,0.70
2023-05-18T11:13:54.375Z,0.93
2023-05-18T11:16:23.853Z,0.80
2023-05-18T11:18:53.318Z,0.80
2023-05-18T11:21:20.753Z,0.70
2023-05-18T11:24:18.855Z,0.70
2023-05-18T11:26:48.687Z,0.80
2023-05-18T11:29:20.568Z,0.73
2023-05-18T11:31:53.949Z,0.90
2023-05-18T11:34:40.038Z,0.80
2023-05-18T11:37:10.458Z,0.73
2023-05-18T11:39:47.973Z,1.10
2023-05-18T11:42:20.650Z,1.20
2023-05-18T11:44:56.014Z,0.90
2023-05-18T11:47:31.715Z,0.93
2023-05-18T11:50:00.536Z,0.70
2023-05-18T11:52:28.163Z,0.80
2023-05-18T11:54:57.225Z,0.70
2023-05-18T11:57:34.666Z,0.80
2023-05-18T12:00:08.122Z,0.60
2023-05-18T12:02:35.745Z,0.90
2023-05-18T12:05:08.473Z,0.70
2023-05-18T12:07:37.142Z,0.90
2023-05-18T12:10:17.252Z,0.80
2023-05-18T12:12:49.560Z,0.80
2023-05-18T12:15:17.552Z,0.87
2023-05-18T12:17:47.972Z,0.70
2023-05-18T12:20:20.378Z,0.63
2023-05-18T12:22:53.382Z,1.00
2023-05-18T12:25:25.746Z,1.07
2023-05-18T12:27:54.819Z,0.73
2023-05-18T12:30:24.304Z,0.63
2023-05-18T12:32:56.866Z,0.80
2023-05-18T12:35:28.424Z,0.87
2023-05-18T12:37:58.218Z,0.80
2023-05-18T12:40:25.557Z,1.03
2023-05-18T12:43:00.315Z,1.07
2023-05-18T12:45:33.041Z,0.73
2023-05-18T12:48:08.654Z,0.60
2023-05-18T12:50:37.383Z,0.73
2023-05-18T12:53:05.075Z,0.97
2023-05-18T12:55:33.458Z,0.80
2023-05-18T12:58:19.504Z,0.60
2023-05-18T13:00:48.718Z,0.80
2023-05-18T13:03:22.266Z,1.13
2023-05-18T13:06:09.858Z,0.70
2023-05-18T13:08:37.571Z,0.67
2023-05-18T13:11:13.750Z,0.77
2023-05-18T13:14:14.389Z,0.70
2023-05-18T13:16:45.768Z,1.00
2023-05-18T13:19:20.945Z,0.73
2023-05-18T13:22:07.037Z,0.90
2023-05-18T13:24:34.332Z,1.00
2023-05-18T13:27:02.482Z,1.10
2023-05-18T13:29:29.840Z,1.03
2023-05-18T13:31:57.160Z,0.90
2023-05-18T13:34:24.400Z,0.70
2023-05-18T13:36:52.128Z,0.90
2023-05-18T13:39:19.437Z,0.80
2023-05-18T13:41:46.866Z,0.90
2023-05-18T13:44:16.186Z,0.90
2023-05-18T13:46:43.619Z,0.80
2023-05-18T13:49:13.485Z,1.13
2023-05-18T13:51:40.868Z,0.90
2023-05-18T13:54:08.289Z,0.77
2023-05-18T13:56:35.786Z,0.80
2023-05-18T13:59:03.624Z,0.80
2023-05-18T14:01:32.809Z,1.03
2023-05-18T14:04:00.255Z,0.90
2023-05-18T14:06:27.811Z,0.90
2023-05-18T14:08:55.026Z,0.90
2023-05-18T14:11:22.369Z,0.90
2023-05-18T14:13:50.457Z,1.00
2023-05-18T14:16:20.599Z,0.90
2023-05-18T14:18:47.916Z,0.80
2023-05-18T14:21:15.465Z,1.10
2023-05-18T14:23:42.798Z,1.10
2023-05-18T14:26:10.165Z,1.00
2023-05-18T14:28:37.374Z,1.10
2023-05-18T14:31:04.915Z,0.90
2023-05-18T14:33:32.260Z,1.10
2023-05-18T14:36:00.105Z,0.90
2023-05-18T14:38:27.401Z,1.10
2023-05-18T14:40:54.704Z,1.37
2023-05-18T14:43:22.118Z,1.27
2023-05-18T14:46:00.332Z,1.17
2023-05-18T14:48:35.269Z,1.07
2023-05-18T14:51:02.827Z,1.23
2023-05-18T14:53:30.178Z,1.17
2023-05-18T14:55:57.646Z,1.47
2023-05-18T14:58:25.045Z,1.13
2023-05-18T15:00:52.265Z,1.37
2023-05-18T15:03:19.704Z,1.67
2023-05-18T15:05:47.510Z,1.10
2023-05-18T15:08:14.847Z,1.30
2023-05-18T15:10:42.186Z,1.30
2023-05-18T15:13:09.420Z,1.27
2023-05-18T15:15:36.902Z,1.30
2023-05-18T15:18:04.330Z,1.77
2023-05-18T15:20:31.906Z,1.33
2023-05-18T15:22:59.769Z,1.70
2023-05-18T15:25:27.562Z,2.43
2023-05-18T15:27:54.855Z,1.60
2023-05-18T15:30:22.168Z,1.70
2023-05-18T15:32:49.476Z,2.00
2023-05-18T15:35:17.026Z,2.57
2023-05-18T15:37:44.366Z,2.33
2023-05-18T15:40:11.931Z,2.90
2023-05-18T15:42:39.237Z,2.53
2023-05-18T15:45:07.277Z,2.40
2023-05-18T15:47:34.564Z,2.37
2023-05-18T15:50:02.321Z,2.13
2023-05-18T15:52:29.621Z,2.67
2023-05-18T15:54:56.970Z,2.23
2023-05-18T15:57:24.339Z,2.83
2023-05-18T15:59:51.701Z,2.80
2023-05-18T16:02:23.245Z,2.07
2023-05-18T16:04:52.541Z,2.70
2023-05-18T16:07:20.038Z,2.40
2023-05-18T16:09:48.393Z,2.77
2023-05-18T16:12:15.620Z,3.30
2023-05-18T16:14:43.187Z,3.30
2023-05-18T16:17:10.667Z,2.50
2023-05-18T16:19:38.027Z,2.87
2023-05-18T16:22:05.353Z,2.50
2023-05-18T16:24:32.718Z,2.47
2023-05-18T16:27:00.166Z,2.40
2023-05-18T16:29:27.473Z,3.30
2023-05-18T16:31:54.966Z,3.10
2023-05-18T16:34:22.424Z,3.00
2023-05-18T16:36:50.006Z,3.50
2023-05-18T16:39:18.711Z,3.37
2023-05-18T16:41:46.066Z,3.40
2023-05-18T16:44:13.397Z,3.60
2023-05-18T16:46:40.717Z,3.30
2023-05-18T16:49:08.004Z,3.33
2023-05-18T16:51:35.412Z,3.50
2023-05-18T16:54:02.839Z,3.40
2023-05-18T16:56:30.109Z,3.00
2023-05-18T16:58:57.539Z,3.30
2023-05-18T17:01:28.620Z,3.20
2023-05-18T17:03:56.641Z,3.10
2023-05-18T17:06:25.200Z,3.50
2023-05-18T17:08:57.659Z,2.77
2023-05-18T17:11:27.972Z,3.80
2023-05-18T17:13:56.245Z,3.47
2023-05-18T17:16:23.664Z,3.20
2023-05-18T17:18:50.980Z,4.00
2023-05-18T17:21:18.211Z,4.00
2023-05-18T17:23:45.837Z,3.23
2023-05-18T17:26:13.189Z,3.80
2023-05-18T17:28:40.637Z,3.87
2023-05-18T17:31:07.931Z,2.90
2023-05-18T17:33:35.220Z,3.30
2023-05-18T17:36:03.768Z,3.70
2023-05-18T17:38:31.298Z,3.60
2023-05-18T17:40:59.776Z,3.40
2023-05-18T17:43:27.157Z,3.37
2023-05-18T17:45:54.808Z,3.50
2023-05-18T17:48:22.462Z,3.30
2023-05-18T17:50:52.156Z,3.27
2023-05-18T17:53:20.850Z,3.30
2023-05-18T17:55:50.496Z,3.53
2023-05-18T17:58:17.825Z,3.00
2023-05-18T18:00:45.100Z,3.33
2023-05-18T18:03:12.734Z,3.03
2023-05-18T18:05:43.394Z,3.20
2023-05-18T18:08:10.896Z,3.70
2023-05-18T18:10:38.257Z,3.60
2023-05-18T18:13:05.673Z,3.97
2023-05-18T18:15:33.065Z,3.43
2023-05-18T18:18:00.672Z,3.90
2023-05-18T18:20:29.160Z,4.30
2023-05-18T18:22:56.671Z,3.17
2023-05-18T18:25:24.056Z,3.70
2023-05-18T18:27:51.265Z,3.57
2023-05-18T18:30:18.708Z,3.43
2023-05-18T18:32:45.988Z,3.20
2023-05-18T18:35:13.499Z,3.83
2023-05-18T18:37:40.921Z,3.87
2023-05-18T18:40:09.503Z,3.67
2023-05-18T18:42:36.832Z,4.03
2023-05-18T18:45:04.763Z,4.07
2023-05-18T18:47:32.138Z,4.10
2023-05-18T18:49:59.445Z,4.30
2023-05-18T18:52:26.761Z,4.10
2023-05-18T18:54:54.149Z,4.27
2023-05-18T18:57:21.998Z,4.33
2023-05-18T18:59:49.434Z,3.83
2023-05-18T19:02:18.022Z,4.13
2023-05-18T19:04:48.395Z,4.57
2023-05-18T19:07:15.989Z,4.73
2023-05-18T19:09:43.409Z,6.07
2023-05-18T19:12:11.404Z,5.77
2023-05-18T19:14:38.755Z,8.60
2023-05-18T19:17:07.308Z,6.10
2023-05-18T19:19:34.643Z,4.43
2023-05-18T19:22:02.062Z,4.67
2023-05-18T19:24:29.462Z,5.23
2023-05-18T19:26:56.961Z,4.60
2023-05-18T19:29:26.923Z,4.47
2023-05-18T19:31:56.221Z,3.97
2023-05-18T19:34:23.785Z,3.17
2023-05-18T19:36:51.194Z,4.80
2023-05-18T19:39:21.993Z,4.00
2023-05-18T19:41:49.351Z,4.47
2023-05-18T19:44:16.815Z,4.93
2023-05-18T19:46:44.386Z,3.97
2023-05-18T19:49:11.772Z,4.00
2023-05-18T19:51:41.573Z,4.53
2023-05-18T19:54:08.868Z,4.27
2023-05-18T19:56:36.479Z,4.00
2023-05-18T19:59:03.789Z,3.70
2023-05-18T20:01:32.373Z,4.00
2023-05-18T20:04:00.366Z,4.03
2023-05-18T20:06:32.524Z,4.13
2023-05-18T20:09:00.818Z,3.73
2023-05-18T20:11:28.193Z,4.33
2023-05-18T20:13:55.624Z,4.00
2023-05-18T20:16:23.015Z,3.73
2023-05-18T20:18:50.421Z,4.53
2023-05-18T20:21:18.646Z,5.00
2023-05-18T20:23:47.483Z,4.20
2023-05-18T20:26:14.912Z,4.30
2023-05-18T20:28:42.298Z,4.23
2023-05-18T20:31:11.328Z,4.70
2023-05-18T20:33:39.520Z,4.60
2023-05-18T20:36:09.088Z,3.90
2023-05-18T20:38:36.538Z,4.10
2023-05-18T20:41:03.938Z,4.63
2023-05-18T20:43:31.908Z,4.40
2023-05-18T20:45:59.308Z,4.10
2023-05-18T20:48:26.990Z,4.10
2023-05-18T20:50:54.329Z,4.47
2023-05-18T20:53:21.659Z,4.73
2023-05-18T20:55:49.969Z,4.57
2023-05-18T20:58:18.716Z,4.73
2023-05-18T21:00:49.134Z,4.13
2023-05-18T21:03:18.638Z,3.70
2023-05-18T21:05:48.063Z,3.67
2023-05-18T21:08:15.613Z,4.10
2023-05-18T21:10:42.882Z,4.00
2023-05-18T21:13:10.118Z,3.50
2023-05-18T21:15:37.583Z,4.30
2023-05-18T21:18:04.995Z,4.40
2023-05-18T21:20:32.570Z,4.30
2023-05-18T21:22:59.971Z,3.90
2023-05-18T21:25:27.452Z,4.43
2023-05-18T21:27:54.729Z,4.40
2023-05-18T21:30:22.184Z,4.80
2023-05-18T21:32:49.837Z,4.17
2023-05-18T21:35:17.356Z,3.97
2023-05-18T21:37:44.631Z,3.83
2023-05-18T21:40:12.072Z,3.43
2023-05-18T21:42:45.125Z,4.50
2023-05-18T21:45:13.593Z,3.90
2023-05-18T21:47:40.874Z,3.60
2023-05-18T21:50:08.491Z,3.73
2023-05-18T21:52:35.763Z,3.90
2023-05-18T21:55:03.131Z,3.77
2023-05-18T21:57:31.601Z,4.60
2023-05-18T21:59:58.872Z,4.10
2023-05-18T22:02:26.263Z,4.40
2023-05-18T22:04:53.694Z,4.03
2023-05-18T22:07:21.042Z,3.40
2023-05-18T22:09:50.596Z,4.53
2023-05-18T22:12:18.716Z,3.90
2023-05-18T22:14:45.978Z,4.50
2023-05-18T22:17:13.298Z,4.60
2023-05-18T22:19:42.241Z,3.97
2023-05-18T22:22:13.900Z,4.40
2023-05-18T22:24:48.781Z,3.70
2023-05-18T22:27:16.325Z,4.20
2023-05-18T22:29:43.593Z,3.90
2023-05-18T22:32:10.876Z,5.50
2023-05-18T22:34:38.906Z,4.70
2023-05-18T22:37:06.267Z,3.97
2023-05-18T22:39:33.485Z,3.90
2023-05-18T22:42:00.886Z,3.57
2023-05-18T22:44:28.108Z,3.57
2023-05-18T22:46:55.703Z,4.33
2023-05-18T22:49:23.370Z,4.57
2023-05-18T22:51:52.712Z,4.50
2023-05-18T22:54:19.988Z,4.60
2023-05-18T22:56:47.317Z,4.20
2023-05-18T22:59:14.581Z,4.30
2023-05-18T23:01:41.992Z,4.60
2023-05-18T23:04:09.294Z,4.40
2023-05-18T23:06:36.536Z,4.13
2023-05-18T23:09:04.073Z,5.23
2023-05-18T23:11:31.288Z,4.87
2023-05-18T23:14:02.705Z,3.83
2023-05-18T23:16:30.214Z,4.10
2023-05-18T23:18:58.792Z,4.50
2023-05-18T23:21:26.571Z,4.10
2023-05-18T23:23:54.572Z,4.60
2023-05-18T23:26:22.827Z,4.10
2023-05-18T23:28:50.529Z,4.20
2023-05-18T23:31:17.834Z,4.57
2023-05-18T23:33:45.407Z,3.77
2023-05-18T23:36:14.806Z,4.20
2023-05-18T23:38:44.159Z,4.33
2023-05-18T23:41:11.912Z,4.67
2023-05-18T23:43:39.755Z,4.33
2023-05-18T23:46:07.895Z,4.87
2023-05-18T23:48:35.984Z,3.70
2023-05-18T23:51:03.784Z,4.53
2023-05-18T23:53:32.391Z,4.00
2023-05-18T23:56:00.594Z,4.40
2023-05-18T23:58:29.809Z,4.53
